createdAt,value
2019-02-26T00:00:58.619Z,35.44
2019-02-26T00:03:28.630Z,35.49
2019-02-26T00:05:59.503Z,35.50
2019-02-26T00:08:29.627Z,35.50
2019-02-26T00:11:01.148Z,35.51
2019-02-26T00:13:31.767Z,35.54
2019-02-26T00:16:03.265Z,35.56
2019-02-26T00:18:30.746Z,35.60
2019-02-26T00:21:01.188Z,35.65
2019-02-26T00:23:30.190Z,35.63
2019-02-26T00:25:58.966Z,35.66
2019-02-26T00:28:27.909Z,35.69
2019-02-26T00:30:57.196Z,35.71
2019-02-26T00:33:28.871Z,35.79
2019-02-26T00:35:57.827Z,35.83
2019-02-26T00:38:26.741Z,35.82
2019-02-26T00:40:57.335Z,35.85
2019-02-26T00:43:28.024Z,35.84
2019-02-26T00:45:58.348Z,35.87
2019-02-26T00:48:27.455Z,35.89
2019-02-26T00:50:57.289Z,35.92
2019-02-26T00:53:28.463Z,35.96
2019-02-26T00:55:59.386Z,35.98
2019-02-26T00:58:28.207Z,36.00
2019-02-26T01:00:57.039Z,36.01
2019-02-26T01:03:25.856Z,35.99
2019-02-26T01:05:54.677Z,36.06
2019-02-26T01:08:23.607Z,36.06
2019-02-26T01:10:52.768Z,36.07
2019-02-26T01:13:22.518Z,36.08
2019-02-26T01:15:52.224Z,36.12
2019-02-26T01:18:22.851Z,36.13
2019-02-26T01:20:52.587Z,36.17
2019-02-26T01:23:24.369Z,36.15
2019-02-26T01:25:54.666Z,36.21
2019-02-26T01:28:24.826Z,36.22
2019-02-26T01:30:55.835Z,36.26
2019-02-26T01:33:26.715Z,36.27
2019-02-26T01:35:56.163Z,36.26
2019-02-26T01:38:25.901Z,36.27
2019-02-26T01:40:56.009Z,36.28
2019-02-26T01:43:25.161Z,36.30
2019-02-26T01:45:55.393Z,36.34
2019-02-26T01:48:24.659Z,36.30
2019-02-26T01:50:54.541Z,36.32
2019-02-26T01:53:24.433Z,36.36
2019-02-26T01:55:53.297Z,36.37
2019-02-26T01:58:22.340Z,36.38
2019-02-26T02:00:55.262Z,36.38
2019-02-26T02:03:23.095Z,36.40
2019-02-26T02:05:54.717Z,36.42
2019-02-26T02:08:24.971Z,36.45
2019-02-26T02:10:56.529Z,36.45
2019-02-26T02:13:28.342Z,36.48
2019-02-26T02:15:55.209Z,36.49
2019-02-26T02:18:25.916Z,36.52
2019-02-26T02:20:54.698Z,36.54
2019-02-26T02:23:25.702Z,36.55
2019-02-26T02:25:54.320Z,36.58
2019-02-26T02:28:23.988Z,36.55
2019-02-26T02:30:53.926Z,36.53
2019-02-26T02:33:24.200Z,36.51
2019-02-26T02:35:53.397Z,36.49
2019-02-26T02:38:22.340Z,36.49
2019-02-26T02:40:52.856Z,36.48
2019-02-26T02:43:23.538Z,36.48
2019-02-26T02:45:55.144Z,36.48
2019-02-26T02:48:23.503Z,36.46
2019-02-26T02:50:52.436Z,36.45
2019-02-26T02:53:23.964Z,36.43
2019-02-26T02:55:51.939Z,36.42
2019-02-26T02:58:21.341Z,36.42
2019-02-26T03:00:52.243Z,36.39
2019-02-26T03:03:21.877Z,36.39
2019-02-26T03:05:50.726Z,36.40
2019-02-26T03:08:22.447Z,36.41
2019-02-26T03:10:50.398Z,36.40
2019-02-26T03:13:20.277Z,36.42
2019-02-26T03:15:51.046Z,36.42
2019-02-26T03:18:20.625Z,36.42
2019-02-26T03:20:51.207Z,36.44
2019-02-26T03:23:20.390Z,36.43
2019-02-26T03:25:50.519Z,36.44
2019-02-26T03:28:19.877Z,36.46
2019-02-26T03:30:48.725Z,36.48
2019-02-26T03:33:17.605Z,36.55
2019-02-26T03:35:46.417Z,36.53
2019-02-26T03:38:17.797Z,36.54
2019-02-26T03:40:45.794Z,36.56
2019-02-26T03:43:16.277Z,36.56
2019-02-26T03:45:47.296Z,36.59
2019-02-26T03:48:19.314Z,36.61
2019-02-26T03:50:46.205Z,36.65
2019-02-26T03:53:15.084Z,36.64
2019-02-26T03:55:44.105Z,36.67
2019-02-26T03:58:12.877Z,36.67
2019-02-26T04:00:43.931Z,36.69
2019-02-26T04:03:14.641Z,36.72
2019-02-26T04:05:43.158Z,36.76
2019-02-26T04:08:12.023Z,36.78
2019-02-26T04:10:40.819Z,36.78
2019-02-26T04:13:09.683Z,36.80
2019-02-26T04:15:38.523Z,36.86
2019-02-26T04:18:07.426Z,36.86
2019-02-26T04:20:36.170Z,36.90
2019-02-26T04:23:04.991Z,36.93
2019-02-26T04:26:18.528Z,36.89
2019-02-26T04:29:03.514Z,36.87
2019-02-26T04:32:12.131Z,36.85
2019-02-26T04:35:11.065Z,36.90
2019-02-26T04:38:18.058Z,36.91
2019-02-26T04:41:00.527Z,36.92
2019-02-26T04:44:00.758Z,36.90
2019-02-26T04:47:21.969Z,36.90
2019-02-26T04:49:50.543Z,36.86
2019-02-26T04:52:19.338Z,36.84
2019-02-26T04:54:48.145Z,36.81
2019-02-26T04:57:16.936Z,36.81
2019-02-26T04:59:45.948Z,36.79
2019-02-26T05:02:14.900Z,36.76
2019-02-26T05:04:43.758Z,36.73
2019-02-26T05:07:14.000Z,36.74
2019-02-26T05:09:43.171Z,36.73
2019-02-26T05:12:12.010Z,36.73
2019-02-26T05:14:40.829Z,36.78
2019-02-26T05:17:09.681Z,36.82
2019-02-26T05:19:39.491Z,36.79
2019-02-26T05:22:09.243Z,36.81
2019-02-26T05:24:41.398Z,36.90
2019-02-26T05:27:15.532Z,36.86
2019-02-26T05:29:46.602Z,36.87
2019-02-26T05:32:15.781Z,36.88
2019-02-26T05:34:45.945Z,36.93
2019-02-26T05:37:15.190Z,36.95
2019-02-26T05:39:46.801Z,36.95
2019-02-26T05:42:14.823Z,36.95
2019-02-26T05:44:43.715Z,36.96
2019-02-26T05:47:13.178Z,36.98
2019-02-26T05:49:45.651Z,36.99
2019-02-26T05:52:13.755Z,37.01
2019-02-26T05:54:42.653Z,37.03
2019-02-26T05:57:26.065Z,37.08
2019-02-26T05:59:42.167Z,37.09
2019-02-26T06:02:13.226Z,37.08
2019-02-26T06:04:43.899Z,37.08
2019-02-26T06:07:12.261Z,37.12
2019-02-26T06:09:41.153Z,37.13
2019-02-26T06:12:09.987Z,37.12
2019-02-26T06:14:39.482Z,37.13
2019-02-26T06:17:10.708Z,37.09
2019-02-26T06:19:44.936Z,37.05
2019-02-26T06:22:17.064Z,37.06
2019-02-26T06:24:44.785Z,37.03
2019-02-26T06:27:16.017Z,37.02
2019-02-26T06:29:44.117Z,37.02
2019-02-26T06:32:14.651Z,37.01
2019-02-26T06:34:43.498Z,36.98
2019-02-26T06:37:20.029Z,37.13
2019-02-26T06:39:52.616Z,37.16
2019-02-26T06:42:19.495Z,37.09
2019-02-26T06:44:49.424Z,37.07
2019-02-26T06:47:18.927Z,37.05
2019-02-26T06:49:48.549Z,37.03
2019-02-26T06:52:18.312Z,37.15
2019-02-26T06:54:50.776Z,37.13
2019-02-26T06:57:17.864Z,37.08
2019-02-26T06:59:46.650Z,37.03
2019-02-26T07:02:15.590Z,37.00
2019-02-26T07:04:44.456Z,36.94
2019-02-26T07:07:14.420Z,36.88
2019-02-26T07:09:43.978Z,36.79
2019-02-26T07:12:14.632Z,36.68
2019-02-26T07:14:43.737Z,36.56
2019-02-26T07:17:12.594Z,36.32
2019-02-26T07:19:41.391Z,36.22
2019-02-26T07:22:11.612Z,35.63
2019-02-26T07:24:41.842Z,35.53
2019-02-26T07:27:13.723Z,35.59
2019-02-26T07:29:42.875Z,35.55
2019-02-26T07:32:14.619Z,35.44
2019-02-26T07:34:45.205Z,35.39
2019-02-26T07:37:15.836Z,35.32
2019-02-26T07:39:46.702Z,35.20
2019-02-26T07:42:16.952Z,35.15
2019-02-26T07:44:46.047Z,35.24
2019-02-26T07:47:14.821Z,35.21
2019-02-26T07:49:43.780Z,35.18
2019-02-26T07:52:12.680Z,33.82
2019-02-26T07:54:42.781Z,27.83
2019-02-26T07:57:12.203Z,28.41
2019-02-26T07:59:42.662Z,28.69
2019-02-26T08:02:13.471Z,29.43
2019-02-26T08:04:43.610Z,29.61
2019-02-26T08:07:12.655Z,29.58
2019-02-26T08:09:41.646Z,29.67
2019-02-26T08:12:11.378Z,29.25
2019-02-26T08:14:42.768Z,30.14
2019-02-26T08:17:11.660Z,30.75
2019-02-26T08:19:43.752Z,30.99
2019-02-26T08:22:11.288Z,31.04
2019-02-26T08:24:40.132Z,31.60
2019-02-26T08:27:11.038Z,32.24
2019-02-26T08:29:39.516Z,32.63
2019-02-26T08:32:08.312Z,33.22
2019-02-26T08:34:39.139Z,33.82
2019-02-26T08:37:07.757Z,34.20
2019-02-26T08:39:38.007Z,34.01
2019-02-26T08:42:11.455Z,34.14
2019-02-26T08:44:40.299Z,33.66
2019-02-26T08:47:11.994Z,33.72
2019-02-26T08:49:40.692Z,33.14
2019-02-26T08:52:10.387Z,32.86
2019-02-26T08:54:39.466Z,32.59
2019-02-26T08:57:08.361Z,32.31
2019-02-26T08:59:37.295Z,32.15
2019-02-26T09:02:06.159Z,32.14
2019-02-26T09:04:37.393Z,32.12
2019-02-26T09:07:05.681Z,32.10
2019-02-26T09:09:35.198Z,32.06
2019-02-26T09:12:04.098Z,32.04
2019-02-26T09:14:37.296Z,32.09
2019-02-26T09:17:04.522Z,32.08
2019-02-26T09:19:35.495Z,32.12
2019-02-26T09:22:04.108Z,31.98
2019-02-26T09:24:33.136Z,32.05
2019-02-26T09:27:04.321Z,32.09
2019-02-26T09:29:34.324Z,32.17
2019-02-26T09:32:06.720Z,32.18
2019-02-26T09:34:34.889Z,32.16
2019-02-26T09:37:05.751Z,32.19
2019-02-26T09:39:36.496Z,32.23
2019-02-26T09:42:06.653Z,32.29
2019-02-26T09:44:36.599Z,32.31
2019-02-26T09:47:07.599Z,32.34
2019-02-26T09:49:36.172Z,32.39
2019-02-26T09:52:06.525Z,32.38
2019-02-26T09:54:40.438Z,32.37
2019-02-26T09:57:06.016Z,32.40
2019-02-26T09:59:35.952Z,32.43
2019-02-26T10:02:06.044Z,32.44
2019-02-26T10:04:35.170Z,32.50
2019-02-26T10:07:04.773Z,32.54
2019-02-26T10:09:36.751Z,32.50
2019-02-26T10:12:07.512Z,32.50
2019-02-26T10:14:38.316Z,32.53
2019-02-26T10:17:06.477Z,32.57
2019-02-26T10:19:35.717Z,32.61
2019-02-26T10:22:09.582Z,32.60
2019-02-26T10:24:39.647Z,32.68
2019-02-26T10:27:10.917Z,32.78
2019-02-26T10:29:39.910Z,32.85
2019-02-26T10:32:11.194Z,32.80
2019-02-26T10:34:39.077Z,32.98
2019-02-26T10:37:08.047Z,33.26
2019-02-26T10:39:36.906Z,33.37
2019-02-26T10:42:05.816Z,33.40
2019-02-26T10:44:34.824Z,33.52
2019-02-26T10:47:05.750Z,33.57
2019-02-26T10:49:34.309Z,33.67
2019-02-26T10:52:03.274Z,33.72
2019-02-26T10:54:36.603Z,33.92
2019-02-26T10:57:06.433Z,33.93
2019-02-26T10:59:33.532Z,34.11
2019-02-26T11:02:03.205Z,34.32
2019-02-26T11:04:35.606Z,34.58
2019-02-26T11:07:04.936Z,34.71
2019-02-26T11:09:33.450Z,34.87
2019-02-26T11:12:05.223Z,35.02
2019-02-26T11:14:33.984Z,35.24
2019-02-26T11:17:03.514Z,35.37
2019-02-26T11:19:35.660Z,34.97
2019-02-26T11:22:04.197Z,35.18
2019-02-26T11:24:34.135Z,35.42
2019-02-26T11:27:04.105Z,35.43
2019-02-26T11:29:35.854Z,35.08
2019-02-26T11:32:07.629Z,35.22
2019-02-26T11:34:36.271Z,35.05
2019-02-26T11:37:08.871Z,34.94
2019-02-26T11:39:36.323Z,34.71
2019-02-26T11:42:05.282Z,34.18
2019-02-26T11:44:34.163Z,33.47
2019-02-26T11:47:03.040Z,33.55
2019-02-26T11:49:33.966Z,33.39
2019-02-26T11:52:04.389Z,33.20
2019-02-26T11:54:35.058Z,32.82
2019-02-26T11:57:04.536Z,32.76
2019-02-26T11:59:35.666Z,32.68
2019-02-26T12:02:06.418Z,32.54
2019-02-26T12:04:35.493Z,32.29
2019-02-26T12:07:06.840Z,32.02
2019-02-26T12:09:37.826Z,31.92
2019-02-26T12:12:06.169Z,31.98
2019-02-26T12:14:38.002Z,31.33
2019-02-26T12:17:06.835Z,31.44
2019-02-26T12:19:37.146Z,31.07
2019-02-26T12:22:06.189Z,31.14
2019-02-26T12:24:36.138Z,31.31
2019-02-26T12:27:07.099Z,31.16
2019-02-26T12:29:35.733Z,31.16
2019-02-26T12:32:04.888Z,31.37
2019-02-26T12:34:35.171Z,31.34
2019-02-26T12:37:06.610Z,31.34
2019-02-26T12:39:35.204Z,31.37
2019-02-26T12:42:16.714Z,31.26
2019-02-26T12:44:46.548Z,31.20
2019-02-26T12:47:18.106Z,30.93
2019-02-26T12:49:46.070Z,30.73
2019-02-26T12:52:17.794Z,30.86
2019-02-26T12:54:45.590Z,30.79
2019-02-26T12:57:16.934Z,30.39
2019-02-26T12:59:45.182Z,30.12
2019-02-26T13:02:17.020Z,29.90
2019-02-26T13:04:47.259Z,29.67
2019-02-26T13:07:15.496Z,29.90
2019-02-26T13:09:50.443Z,29.92
2019-02-26T13:12:19.818Z,29.61
2019-02-26T13:14:47.516Z,29.84
2019-02-26T13:17:17.459Z,29.57
2019-02-26T13:19:49.256Z,29.76
2019-02-26T13:22:20.263Z,29.83
2019-02-26T13:24:48.749Z,29.87
2019-02-26T13:27:17.830Z,29.94
2019-02-26T13:29:53.473Z,30.01
2019-02-26T13:32:20.532Z,30.00
2019-02-26T13:34:47.977Z,30.12
2019-02-26T13:37:16.926Z,30.12
2019-02-26T13:39:45.945Z,30.02
2019-02-26T13:42:19.283Z,29.93
2019-02-26T13:44:45.312Z,29.64
2019-02-26T13:47:14.284Z,29.77
2019-02-26T13:49:43.194Z,29.40
2019-02-26T13:52:12.186Z,29.40
2019-02-26T13:54:41.101Z,28.69
2019-02-26T13:57:10.188Z,29.17
2019-02-26T13:59:39.081Z,29.16
2019-02-26T14:02:08.151Z,28.74
2019-02-26T14:04:37.137Z,29.07
2019-02-26T14:07:06.089Z,28.17
2019-02-26T14:09:35.075Z,28.68
2019-02-26T14:12:03.943Z,28.90
2019-02-26T14:14:33.145Z,29.02
2019-02-26T14:17:02.169Z,29.04
2019-02-26T14:19:31.095Z,29.04
2019-02-26T14:21:59.929Z,28.97
2019-02-26T14:24:29.144Z,28.91
2019-02-26T14:26:58.049Z,28.48
2019-02-26T14:29:26.968Z,28.76
2019-02-26T14:31:55.816Z,28.64
2019-02-26T14:34:24.705Z,28.45
2019-02-26T14:36:53.635Z,28.69
2019-02-26T14:39:23.374Z,28.62
2019-02-26T14:41:52.262Z,28.29
2019-02-26T14:44:21.262Z,27.98
2019-02-26T14:46:50.194Z,28.26
2019-02-26T14:49:19.136Z,26.93
2019-02-26T14:51:48.000Z,28.02
2019-02-26T14:54:16.874Z,28.06
2019-02-26T14:56:45.803Z,28.16
2019-02-26T14:59:14.673Z,28.06
2019-02-26T15:01:43.595Z,28.09
2019-02-26T15:04:12.458Z,28.02
2019-02-26T15:06:41.377Z,27.94
2019-02-26T15:09:10.319Z,27.89
2019-02-26T15:11:39.240Z,27.95
2019-02-26T15:14:08.116Z,27.84
2019-02-26T15:16:37.053Z,27.79
2019-02-26T15:19:06.023Z,27.83
2019-02-26T15:21:34.972Z,27.51
2019-02-26T15:24:03.976Z,27.65
2019-02-26T15:26:33.001Z,27.67
2019-02-26T15:29:01.924Z,26.96
2019-02-26T15:31:30.843Z,27.33
2019-02-26T15:33:59.862Z,27.39
2019-02-26T15:36:28.942Z,27.58
2019-02-26T15:38:57.813Z,27.63
2019-02-26T15:41:26.589Z,27.64
2019-02-26T15:43:56.520Z,27.37
2019-02-26T15:46:25.939Z,27.54
2019-02-26T15:48:56.695Z,27.59
2019-02-26T15:51:25.647Z,27.27
2019-02-26T15:53:55.561Z,27.01
2019-02-26T15:56:25.291Z,27.27
2019-02-26T15:58:54.302Z,27.57
2019-02-26T16:01:23.157Z,27.61
2019-02-26T16:03:52.160Z,27.79
2019-02-26T16:06:21.255Z,28.00
2019-02-26T16:08:50.569Z,28.18
2019-02-26T16:11:19.616Z,28.45
2019-02-26T16:13:48.509Z,28.48
2019-02-26T16:16:18.079Z,28.34
2019-02-26T16:18:48.561Z,28.23
2019-02-26T16:21:19.309Z,28.21
2019-02-26T16:23:48.424Z,28.19
2019-02-26T16:26:17.538Z,28.22
2019-02-26T16:28:46.603Z,28.23
2019-02-26T16:31:15.705Z,28.27
2019-02-26T16:33:46.726Z,28.16
2019-02-26T16:36:16.266Z,28.18
2019-02-26T16:38:45.382Z,28.36
2019-02-26T16:41:16.313Z,28.54
2019-02-26T16:43:47.246Z,28.64
2019-02-26T16:46:16.534Z,28.70
2019-02-26T16:48:47.399Z,28.81
2019-02-26T16:51:20.951Z,28.86
2019-02-26T16:53:49.129Z,28.45
2019-02-26T16:56:21.467Z,28.72
2019-02-26T16:58:50.615Z,28.87
2019-02-26T17:01:21.939Z,29.13
2019-02-26T17:03:51.797Z,29.27
2019-02-26T17:06:21.200Z,29.45
2019-02-26T17:08:50.599Z,29.55
2019-02-26T17:11:19.899Z,29.64
2019-02-26T17:13:49.374Z,29.71
2019-02-26T17:16:18.757Z,29.84
2019-02-26T17:18:47.940Z,29.93
2019-02-26T17:21:17.053Z,30.13
2019-02-26T17:23:48.999Z,30.16
2019-02-26T17:26:18.690Z,30.05
2019-02-26T17:28:47.751Z,29.95
2019-02-26T17:31:16.797Z,29.87
2019-02-26T17:33:46.748Z,29.76
2019-02-26T17:36:17.136Z,29.57
2019-02-26T17:38:46.613Z,29.22
2019-02-26T17:41:16.148Z,29.30
2019-02-26T17:43:45.688Z,29.52
2019-02-26T17:46:15.440Z,29.54
2019-02-26T17:48:45.060Z,29.56
2019-02-26T17:51:18.728Z,29.55
2019-02-26T17:53:47.862Z,29.64
2019-02-26T17:56:18.149Z,29.65
2019-02-26T17:58:49.389Z,29.72
2019-02-26T18:01:19.341Z,29.74
2019-02-26T18:03:48.878Z,29.73
2019-02-26T18:06:18.022Z,29.71
2019-02-26T18:08:48.821Z,29.67
2019-02-26T18:11:18.125Z,29.70
2019-02-26T18:13:47.619Z,29.63
2019-02-26T18:16:17.334Z,29.29
2019-02-26T18:18:47.265Z,29.14
2019-02-26T18:21:16.466Z,29.26
2019-02-26T18:23:45.486Z,29.50
2019-02-26T18:26:17.609Z,29.62
2019-02-26T18:28:47.785Z,29.66
2019-02-26T18:31:26.063Z,29.68
2019-02-26T18:33:50.580Z,29.70
2019-02-26T18:36:19.706Z,29.70
2019-02-26T18:38:49.300Z,29.35
2019-02-26T18:41:18.690Z,29.59
2019-02-26T18:43:49.120Z,29.81
2019-02-26T18:46:18.826Z,30.03
2019-02-26T18:48:48.691Z,30.25
2019-02-26T18:51:19.206Z,30.53
2019-02-26T18:53:49.757Z,30.77
2019-02-26T18:56:19.163Z,30.80
2019-02-26T18:58:49.969Z,30.78
2019-02-26T19:01:20.619Z,30.92
2019-02-26T19:03:50.337Z,30.67
2019-02-26T19:06:19.718Z,30.62
2019-02-26T19:08:49.074Z,30.50
2019-02-26T19:11:18.213Z,30.27
2019-02-26T19:13:47.835Z,30.15
2019-02-26T19:16:20.474Z,29.99
2019-02-26T19:18:49.969Z,29.74
2019-02-26T19:21:21.538Z,29.75
2019-02-26T19:23:50.015Z,29.77
2019-02-26T19:26:19.206Z,29.81
2019-02-26T19:28:48.421Z,29.80
2019-02-26T19:31:18.278Z,29.83
2019-02-26T19:33:48.229Z,29.79
2019-02-26T19:36:18.535Z,29.79
2019-02-26T19:38:47.607Z,29.82
2019-02-26T19:41:17.369Z,29.81
2019-02-26T19:43:46.884Z,29.80
2019-02-26T19:46:17.858Z,29.88
2019-02-26T19:48:48.121Z,29.89
2019-02-26T19:51:21.950Z,29.92
2019-02-26T19:53:49.579Z,29.98
2019-02-26T19:56:23.237Z,30.05
2019-02-26T19:58:51.776Z,30.11
2019-02-26T20:01:25.473Z,30.20
2019-02-26T20:03:53.661Z,30.25
2019-02-26T20:06:24.984Z,30.31
2019-02-26T20:08:54.262Z,30.50
2019-02-26T20:11:23.475Z,30.48
2019-02-26T20:13:53.298Z,30.54
2019-02-26T20:16:23.189Z,30.63
2019-02-26T20:18:53.318Z,30.64
2019-02-26T20:21:23.327Z,30.77
2019-02-26T20:23:53.538Z,30.84
2019-02-26T20:26:23.986Z,30.76
2019-02-26T20:28:53.944Z,30.74
2019-02-26T20:31:24.497Z,30.77
2019-02-26T20:33:54.058Z,30.62
2019-02-26T20:36:23.746Z,30.55
2019-02-26T20:38:53.569Z,30.48
2019-02-26T20:41:23.554Z,30.37
2019-02-26T20:43:52.880Z,30.07
2019-02-26T20:46:24.956Z,30.31
2019-02-26T20:48:54.024Z,30.38
2019-02-26T20:51:26.903Z,30.34
2019-02-26T20:53:54.998Z,30.36
2019-02-26T20:56:25.067Z,30.38
2019-02-26T20:58:54.136Z,30.35
2019-02-26T21:01:23.410Z,30.34
2019-02-26T21:03:52.526Z,30.27
2019-02-26T21:06:22.387Z,30.22
2019-02-26T21:08:51.883Z,30.28
2019-02-26T21:11:23.223Z,30.21
2019-02-26T21:13:52.017Z,30.35
2019-02-26T21:16:21.522Z,30.34
2019-02-26T21:18:50.981Z,30.39
2019-02-26T21:21:20.585Z,30.34
2019-02-26T21:23:50.216Z,30.44
2019-02-26T21:26:20.274Z,30.45
2019-02-26T21:28:49.871Z,30.46
2019-02-26T21:31:19.648Z,30.49
2019-02-26T21:33:48.813Z,30.51
2019-02-26T21:36:18.362Z,30.57
2019-02-26T21:38:47.891Z,30.61
2019-02-26T21:41:17.146Z,30.66
2019-02-26T21:43:48.558Z,30.74
2019-02-26T21:46:16.825Z,30.88
2019-02-26T21:48:46.018Z,30.85
2019-02-26T21:51:15.268Z,30.94
2019-02-26T21:53:46.674Z,31.02
2019-02-26T21:56:15.890Z,31.06
2019-02-26T21:58:45.300Z,31.09
2019-02-26T22:01:14.289Z,31.19
2019-02-26T22:03:43.446Z,31.22
2019-02-26T22:06:12.588Z,31.27
2019-02-26T22:08:41.948Z,31.38
2019-02-26T22:11:11.346Z,31.47
2019-02-26T22:13:40.319Z,31.55
2019-02-26T22:16:09.415Z,31.59
2019-02-26T22:18:38.419Z,31.63
2019-02-26T22:21:07.419Z,31.69
2019-02-26T22:23:36.279Z,31.74
2019-02-26T22:26:05.237Z,31.77
2019-02-26T22:28:34.229Z,31.84
2019-02-26T22:31:03.219Z,31.89
2019-02-26T22:33:32.137Z,31.96
2019-02-26T22:36:01.122Z,32.01
2019-02-26T22:38:29.997Z,32.03
2019-02-26T22:40:59.875Z,32.10
2019-02-26T22:43:29.350Z,32.16
2019-02-26T22:46:00.777Z,32.16
2019-02-26T22:48:28.864Z,32.21
2019-02-26T22:50:59.798Z,32.28
2019-02-26T22:53:28.400Z,32.31
2019-02-26T22:55:57.196Z,32.35
2019-02-26T22:58:26.136Z,32.41
2019-02-26T23:01:19.782Z,32.46
2019-02-26T23:03:48.534Z,32.51
2019-02-26T23:06:17.426Z,32.56
2019-02-26T23:08:48.705Z,32.61
2019-02-26T23:11:17.136Z,32.64
2019-02-26T23:13:46.008Z,32.71
2019-02-26T23:16:18.117Z,32.74
2019-02-26T23:18:45.435Z,32.77
2019-02-26T23:21:15.651Z,32.85
2019-02-26T23:23:45.057Z,32.87
2019-02-26T23:26:13.983Z,32.90
2019-02-26T23:28:42.861Z,32.94
2019-02-26T23:31:12.044Z,33.00
2019-02-26T23:33:40.971Z,33.05
2019-02-26T23:36:09.954Z,33.08
2019-02-26T23:38:38.743Z,33.11
2019-02-26T23:41:07.619Z,33.16
2019-02-26T23:43:36.455Z,33.19
2019-02-26T23:46:05.501Z,33.21
2019-02-26T23:48:34.418Z,33.26
2019-02-26T23:51:03.352Z,33.31
2019-02-26T23:53:34.130Z,33.34
2019-02-26T23:56:02.801Z,33.38
2019-02-26T23:58:31.682Z,33.39
